sensor_id;sensor_type;location;lat;lon;timestamp;P1;durP1;ratioP1;P2;durP2;ratioP2
54923;SDS011;40825;52.270;20.984;2023-07-22T00:01:23;7.90;;;4.30;;
54923;SDS011;40825;52.270;20.984;2023-07-22T00:03:49;7.10;;;4.60;;
54923;SDS011;40825;52.270;20.984;2023-07-22T00:06:14;8.20;;;4.50;;
54923;SDS011;40825;52.270;20.984;2023-07-22T00:08:40;7.30;;;4.40;;
54923;SDS011;40825;52.270;20.984;2023-07-22T00:11:05;8.20;;;4.80;;
54923;SDS011;40825;52.270;20.984;2023-07-22T00:13:31;8.80;;;5.00;;
54923;SDS011;40825;52.270;20.984;2023-07-22T00:15:57;7.50;;;4.10;;
54923;SDS011;40825;52.270;20.984;2023-07-22T00:18:29;7.00;;;4.80;;
54923;SDS011;40825;52.270;20.984;2023-07-22T00:20:56;7.20;;;4.30;;
54923;SDS011;40825;52.270;20.984;2023-07-22T00:23:21;7.50;;;4.70;;
54923;SDS011;40825;52.270;20.984;2023-07-22T00:25:47;7.90;;;4.20;;
54923;SDS011;40825;52.270;20.984;2023-07-22T00:28:13;8.50;;;4.50;;
54923;SDS011;40825;52.270;20.984;2023-07-22T00:30:39;9.60;;;5.70;;
54923;SDS011;40825;52.270;20.984;2023-07-22T00:33:04;6.40;;;4.30;;
54923;SDS011;40825;52.270;20.984;2023-07-22T00:35:31;6.80;;;3.80;;
54923;SDS011;40825;52.270;20.984;2023-07-22T00:37:57;7.00;;;4.10;;
54923;SDS011;40825;52.270;20.984;2023-07-22T00:40:23;7.70;;;4.60;;
54923;SDS011;40825;52.270;20.984;2023-07-22T00:42:49;7.90;;;4.40;;
54923;SDS011;40825;52.270;20.984;2023-07-22T00:45:14;8.50;;;4.50;;
54923;SDS011;40825;52.270;20.984;2023-07-22T00:47:40;8.80;;;4.50;;
54923;SDS011;40825;52.270;20.984;2023-07-22T00:50:06;7.90;;;4.90;;
54923;SDS011;40825;52.270;20.984;2023-07-22T00:52:33;7.40;;;4.50;;
54923;SDS011;40825;52.270;20.984;2023-07-22T00:54:59;9.10;;;5.00;;
54923;SDS011;40825;52.270;20.984;2023-07-22T00:57:25;6.70;;;4.10;;
54923;SDS011;40825;52.270;20.984;2023-07-22T00:59:51;6.80;;;4.60;;
54923;SDS011;40825;52.270;20.984;2023-07-22T01:02:20;6.50;;;4.50;;
54923;SDS011;40825;52.270;20.984;2023-07-22T01:04:46;6.50;;;4.30;;
54923;SDS011;40825;52.270;20.984;2023-07-22T01:07:12;8.20;;;5.10;;
54923;SDS011;40825;52.270;20.984;2023-07-22T01:09:39;8.30;;;5.40;;
54923;SDS011;40825;52.270;20.984;2023-07-22T01:12:06;8.20;;;5.20;;
54923;SDS011;40825;52.270;20.984;2023-07-22T01:14:34;8.00;;;5.00;;
54923;SDS011;40825;52.270;20.984;2023-07-22T01:17:04;8.50;;;5.10;;
54923;SDS011;40825;52.270;20.984;2023-07-22T01:19:31;7.30;;;5.20;;
54923;SDS011;40825;52.270;20.984;2023-07-22T01:22:04;10.00;;;5.20;;
54923;SDS011;40825;52.270;20.984;2023-07-22T01:24:34;8.00;;;5.10;;
54923;SDS011;40825;52.270;20.984;2023-07-22T01:26:59;7.90;;;5.10;;
54923;SDS011;40825;52.270;20.984;2023-07-22T01:29:26;11.00;;;5.10;;
54923;SDS011;40825;52.270;20.984;2023-07-22T01:31:52;9.10;;;5.70;;
54923;SDS011;40825;52.270;20.984;2023-07-22T01:34:19;8.40;;;5.10;;
54923;SDS011;40825;52.270;20.984;2023-07-22T01:36:46;7.60;;;5.30;;
54923;SDS011;40825;52.270;20.984;2023-07-22T01:39:13;8.60;;;5.10;;
54923;SDS011;40825;52.270;20.984;2023-07-22T01:41:39;9.20;;;6.50;;
54923;SDS011;40825;52.270;20.984;2023-07-22T01:44:05;9.50;;;6.00;;
54923;SDS011;40825;52.270;20.984;2023-07-22T01:46:30;8.70;;;5.60;;
54923;SDS011;40825;52.270;20.984;2023-07-22T01:48:56;9.20;;;6.10;;
54923;SDS011;40825;52.270;20.984;2023-07-22T01:51:21;9.10;;;6.00;;
54923;SDS011;40825;52.270;20.984;2023-07-22T01:53:47;7.60;;;5.60;;
54923;SDS011;40825;52.270;20.984;2023-07-22T01:56:13;8.60;;;5.80;;
54923;SDS011;40825;52.270;20.984;2023-07-22T01:58:38;9.20;;;6.70;;
54923;SDS011;40825;52.270;20.984;2023-07-22T02:01:04;10.70;;;7.00;;
54923;SDS011;40825;52.270;20.984;2023-07-22T02:03:30;10.90;;;6.60;;
54923;SDS011;40825;52.270;20.984;2023-07-22T02:06:06;10.20;;;5.80;;
54923;SDS011;40825;52.270;20.984;2023-07-22T02:08:32;8.90;;;5.90;;
54923;SDS011;40825;52.270;20.984;2023-07-22T02:11:02;10.00;;;6.50;;
54923;SDS011;40825;52.270;20.984;2023-07-22T02:13:29;9.70;;;6.00;;
54923;SDS011;40825;52.270;20.984;2023-07-22T02:15:58;9.70;;;6.90;;
54923;SDS011;40825;52.270;20.984;2023-07-22T02:18:25;8.60;;;5.60;;
54923;SDS011;40825;52.270;20.984;2023-07-22T02:20:50;9.90;;;5.80;;
54923;SDS011;40825;52.270;20.984;2023-07-22T02:23:16;8.50;;;6.20;;
54923;SDS011;40825;52.270;20.984;2023-07-22T02:25:42;9.00;;;5.80;;
54923;SDS011;40825;52.270;20.984;2023-07-22T02:28:07;8.90;;;5.60;;
54923;SDS011;40825;52.270;20.984;2023-07-22T02:30:36;11.40;;;6.30;;
54923;SDS011;40825;52.270;20.984;2023-07-22T02:33:02;9.10;;;6.00;;
54923;SDS011;40825;52.270;20.984;2023-07-22T02:37:55;8.80;;;5.90;;
54923;SDS011;40825;52.270;20.984;2023-07-22T02:40:21;9.90;;;6.10;;
54923;SDS011;40825;52.270;20.984;2023-07-22T02:42:46;9.10;;;6.20;;
54923;SDS011;40825;52.270;20.984;2023-07-22T02:45:12;8.70;;;6.20;;
54923;SDS011;40825;52.270;20.984;2023-07-22T02:47:37;10.30;;;6.00;;
54923;SDS011;40825;52.270;20.984;2023-07-22T02:50:04;11.60;;;6.50;;
54923;SDS011;40825;52.270;20.984;2023-07-22T02:52:31;13.00;;;6.70;;
54923;SDS011;40825;52.270;20.984;2023-07-22T02:57:34;11.60;;;7.00;;
54923;SDS011;40825;52.270;20.984;2023-07-22T02:59:59;11.00;;;6.50;;
54923;SDS011;40825;52.270;20.984;2023-07-22T03:02:25;9.40;;;7.00;;
54923;SDS011;40825;52.270;20.984;2023-07-22T03:04:51;10.10;;;6.80;;
54923;SDS011;40825;52.270;20.984;2023-07-22T03:07:16;9.60;;;7.00;;
54923;SDS011;40825;52.270;20.984;2023-07-22T03:09:42;10.90;;;7.70;;
54923;SDS011;40825;52.270;20.984;2023-07-22T03:12:07;10.80;;;8.00;;
54923;SDS011;40825;52.270;20.984;2023-07-22T03:14:33;10.10;;;7.70;;
54923;SDS011;40825;52.270;20.984;2023-07-22T03:17:02;11.60;;;7.90;;
54923;SDS011;40825;52.270;20.984;2023-07-22T03:19:31;12.30;;;7.60;;
54923;SDS011;40825;52.270;20.984;2023-07-22T03:21:57;11.70;;;8.30;;
54923;SDS011;40825;52.270;20.984;2023-07-22T03:24:22;11.90;;;7.70;;
54923;SDS011;40825;52.270;20.984;2023-07-22T03:26:47;11.90;;;8.30;;
54923;SDS011;40825;52.270;20.984;2023-07-22T03:29:13;10.40;;;7.90;;
54923;SDS011;40825;52.270;20.984;2023-07-22T03:31:39;13.00;;;8.60;;
54923;SDS011;40825;52.270;20.984;2023-07-22T03:34:04;10.40;;;7.70;;
54923;SDS011;40825;52.270;20.984;2023-07-22T03:36:30;11.90;;;8.30;;
54923;SDS011;40825;52.270;20.984;2023-07-22T03:38:58;11.50;;;7.50;;
54923;SDS011;40825;52.270;20.984;2023-07-22T03:41:25;10.70;;;8.00;;
54923;SDS011;40825;52.270;20.984;2023-07-22T03:43:50;11.50;;;7.00;;
54923;SDS011;40825;52.270;20.984;2023-07-22T03:46:16;10.30;;;7.50;;
54923;SDS011;40825;52.270;20.984;2023-07-22T03:48:41;9.70;;;7.00;;
54923;SDS011;40825;52.270;20.984;2023-07-22T03:51:07;10.80;;;7.20;;
54923;SDS011;40825;52.270;20.984;2023-07-22T03:53:32;10.10;;;7.00;;
54923;SDS011;40825;52.270;20.984;2023-07-22T03:55:57;9.50;;;7.30;;
54923;SDS011;40825;52.270;20.984;2023-07-22T03:58:23;13.10;;;7.20;;
54923;SDS011;40825;52.270;20.984;2023-07-22T04:00:49;9.00;;;6.10;;
54923;SDS011;40825;52.270;20.984;2023-07-22T04:03:14;11.40;;;6.70;;
54923;SDS011;40825;52.270;20.984;2023-07-22T04:05:40;9.60;;;6.50;;
54923;SDS011;40825;52.270;20.984;2023-07-22T04:08:05;8.80;;;6.40;;
54923;SDS011;40825;52.270;20.984;2023-07-22T04:10:31;9.80;;;6.10;;
54923;SDS011;40825;52.270;20.984;2023-07-22T04:12:56;9.20;;;5.90;;
54923;SDS011;40825;52.270;20.984;2023-07-22T04:15:22;10.30;;;6.10;;
54923;SDS011;40825;52.270;20.984;2023-07-22T04:17:48;9.20;;;6.10;;
54923;SDS011;40825;52.270;20.984;2023-07-22T04:20:13;9.80;;;6.20;;
54923;SDS011;40825;52.270;20.984;2023-07-22T04:22:39;9.90;;;6.30;;
54923;SDS011;40825;52.270;20.984;2023-07-22T04:25:04;9.30;;;5.60;;
54923;SDS011;40825;52.270;20.984;2023-07-22T04:27:30;8.30;;;5.90;;
54923;SDS011;40825;52.270;20.984;2023-07-22T04:29:56;8.90;;;5.80;;
54923;SDS011;40825;52.270;20.984;2023-07-22T04:32:21;8.20;;;5.90;;
54923;SDS011;40825;52.270;20.984;2023-07-22T04:34:47;10.70;;;6.20;;
54923;SDS011;40825;52.270;20.984;2023-07-22T04:37:12;9.60;;;6.40;;
54923;SDS011;40825;52.270;20.984;2023-07-22T04:39:38;10.00;;;5.60;;
54923;SDS011;40825;52.270;20.984;2023-07-22T04:42:04;9.00;;;6.10;;
54923;SDS011;40825;52.270;20.984;2023-07-22T04:44:30;10.60;;;6.40;;
54923;SDS011;40825;52.270;20.984;2023-07-22T04:46:55;10.70;;;6.50;;
54923;SDS011;40825;52.270;20.984;2023-07-22T04:49:21;9.90;;;6.40;;
54923;SDS011;40825;52.270;20.984;2023-07-22T04:51:47;11.20;;;7.00;;
54923;SDS011;40825;52.270;20.984;2023-07-22T04:54:13;10.00;;;6.30;;
54923;SDS011;40825;52.270;20.984;2023-07-22T04:56:40;10.70;;;6.50;;
54923;SDS011;40825;52.270;20.984;2023-07-22T04:59:07;9.70;;;6.90;;
54923;SDS011;40825;52.270;20.984;2023-07-22T05:01:32;9.70;;;7.00;;
54923;SDS011;40825;52.270;20.984;2023-07-22T05:03:58;9.50;;;6.90;;
54923;SDS011;40825;52.270;20.984;2023-07-22T05:06:23;10.50;;;7.70;;
54923;SDS011;40825;52.270;20.984;2023-07-22T05:08:49;11.70;;;6.40;;
54923;SDS011;40825;52.270;20.984;2023-07-22T05:11:14;9.50;;;6.80;;
54923;SDS011;40825;52.270;20.984;2023-07-22T05:13:39;10.40;;;7.50;;
54923;SDS011;40825;52.270;20.984;2023-07-22T05:16:05;10.40;;;6.80;;
54923;SDS011;40825;52.270;20.984;2023-07-22T05:18:30;11.60;;;7.40;;
54923;SDS011;40825;52.270;20.984;2023-07-22T05:20:56;10.40;;;7.60;;
54923;SDS011;40825;52.270;20.984;2023-07-22T05:23:21;9.50;;;8.10;;
54923;SDS011;40825;52.270;20.984;2023-07-22T05:25:50;9.80;;;7.20;;
54923;SDS011;40825;52.270;20.984;2023-07-22T05:28:17;11.30;;;8.20;;
54923;SDS011;40825;52.270;20.984;2023-07-22T05:30:43;10.80;;;6.80;;
54923;SDS011;40825;52.270;20.984;2023-07-22T05:33:08;9.10;;;6.70;;
54923;SDS011;40825;52.270;20.984;2023-07-22T05:35:34;10.20;;;7.10;;
54923;SDS011;40825;52.270;20.984;2023-07-22T05:37:59;8.90;;;6.40;;
54923;SDS011;40825;52.270;20.984;2023-07-22T05:40:25;10.90;;;7.40;;
54923;SDS011;40825;52.270;20.984;2023-07-22T05:42:51;10.70;;;7.50;;
54923;SDS011;40825;52.270;20.984;2023-07-22T05:45:16;8.90;;;6.30;;
54923;SDS011;40825;52.270;20.984;2023-07-22T05:47:42;11.00;;;6.60;;
54923;SDS011;40825;52.270;20.984;2023-07-22T05:50:07;8.90;;;5.60;;
54923;SDS011;40825;52.270;20.984;2023-07-22T05:52:33;9.10;;;6.00;;
54923;SDS011;40825;52.270;20.984;2023-07-22T05:54:58;8.60;;;5.70;;
54923;SDS011;40825;52.270;20.984;2023-07-22T05:57:24;10.00;;;6.30;;
54923;SDS011;40825;52.270;20.984;2023-07-22T05:59:49;8.40;;;5.60;;
54923;SDS011;40825;52.270;20.984;2023-07-22T06:02:16;8.40;;;5.30;;
54923;SDS011;40825;52.270;20.984;2023-07-22T06:04:43;9.00;;;5.40;;
54923;SDS011;40825;52.270;20.984;2023-07-22T06:07:09;8.40;;;6.10;;
54923;SDS011;40825;52.270;20.984;2023-07-22T06:09:34;8.40;;;5.10;;
54923;SDS011;40825;52.270;20.984;2023-07-22T06:12:00;6.90;;;4.70;;
54923;SDS011;40825;52.270;20.984;2023-07-22T06:14:26;8.30;;;5.00;;
54923;SDS011;40825;52.270;20.984;2023-07-22T06:16:52;7.70;;;5.30;;
54923;SDS011;40825;52.270;20.984;2023-07-22T06:19:18;7.50;;;5.40;;
54923;SDS011;40825;52.270;20.984;2023-07-22T06:21:43;7.70;;;4.80;;
54923;SDS011;40825;52.270;20.984;2023-07-22T06:24:09;6.80;;;4.80;;
54923;SDS011;40825;52.270;20.984;2023-07-22T06:26:35;7.40;;;5.00;;
54923;SDS011;40825;52.270;20.984;2023-07-22T06:29:01;8.10;;;4.70;;
54923;SDS011;40825;52.270;20.984;2023-07-22T06:31:27;7.90;;;4.80;;
54923;SDS011;40825;52.270;20.984;2023-07-22T06:33:58;8.30;;;4.70;;
54923;SDS011;40825;52.270;20.984;2023-07-22T06:36:26;8.30;;;4.60;;
54923;SDS011;40825;52.270;20.984;2023-07-22T06:38:52;7.00;;;3.70;;
54923;SDS011;40825;52.270;20.984;2023-07-22T06:41:18;7.00;;;4.00;;
54923;SDS011;40825;52.270;20.984;2023-07-22T06:43:44;6.80;;;4.10;;
54923;SDS011;40825;52.270;20.984;2023-07-22T06:46:10;7.90;;;3.80;;
54923;SDS011;40825;52.270;20.984;2023-07-22T06:48:35;5.90;;;3.50;;
54923;SDS011;40825;52.270;20.984;2023-07-22T06:51:01;5.40;;;3.10;;
54923;SDS011;40825;52.270;20.984;2023-07-22T06:53:26;6.10;;;3.60;;
54923;SDS011;40825;52.270;20.984;2023-07-22T06:55:52;5.80;;;2.60;;
54923;SDS011;40825;52.270;20.984;2023-07-22T06:58:21;5.70;;;2.60;;
54923;SDS011;40825;52.270;20.984;2023-07-22T07:00:53;4.60;;;2.10;;
54923;SDS011;40825;52.270;20.984;2023-07-22T07:03:20;3.90;;;2.10;;
54923;SDS011;40825;52.270;20.984;2023-07-22T07:05:56;4.30;;;2.00;;
54923;SDS011;40825;52.270;20.984;2023-07-22T07:08:22;4.60;;;2.00;;
54923;SDS011;40825;52.270;20.984;2023-07-22T07:10:49;3.40;;;2.00;;
54923;SDS011;40825;52.270;20.984;2023-07-22T07:13:15;3.90;;;2.10;;
54923;SDS011;40825;52.270;20.984;2023-07-22T07:15:40;4.90;;;2.20;;
54923;SDS011;40825;52.270;20.984;2023-07-22T07:18:06;4.50;;;2.10;;
54923;SDS011;40825;52.270;20.984;2023-07-22T07:20:31;5.20;;;2.20;;
54923;SDS011;40825;52.270;20.984;2023-07-22T07:22:57;6.30;;;2.50;;
54923;SDS011;40825;52.270;20.984;2023-07-22T07:25:22;4.60;;;2.50;;
54923;SDS011;40825;52.270;20.984;2023-07-22T07:27:48;6.80;;;2.70;;
54923;SDS011;40825;52.270;20.984;2023-07-22T07:30:13;4.90;;;2.50;;
54923;SDS011;40825;52.270;20.984;2023-07-22T07:32:39;5.30;;;2.70;;
54923;SDS011;40825;52.270;20.984;2023-07-22T07:35:05;5.80;;;2.60;;
54923;SDS011;40825;52.270;20.984;2023-07-22T07:37:32;5.10;;;2.60;;
54923;SDS011;40825;52.270;20.984;2023-07-22T07:39:57;4.90;;;2.50;;
54923;SDS011;40825;52.270;20.984;2023-07-22T07:42:27;5.30;;;3.50;;
54923;SDS011;40825;52.270;20.984;2023-07-22T07:44:53;4.90;;;2.40;;
54923;SDS011;40825;52.270;20.984;2023-07-22T07:47:18;5.60;;;2.80;;
54923;SDS011;40825;52.270;20.984;2023-07-22T07:49:44;4.60;;;1.90;;
54923;SDS011;40825;52.270;20.984;2023-07-22T07:52:10;4.70;;;2.00;;
54923;SDS011;40825;52.270;20.984;2023-07-22T07:54:35;4.70;;;2.00;;
54923;SDS011;40825;52.270;20.984;2023-07-22T07:57:01;3.90;;;1.80;;
54923;SDS011;40825;52.270;20.984;2023-07-22T07:59:27;3.80;;;2.10;;
54923;SDS011;40825;52.270;20.984;2023-07-22T08:01:52;3.80;;;2.10;;
54923;SDS011;40825;52.270;20.984;2023-07-22T08:04:18;2.50;;;1.70;;
54923;SDS011;40825;52.270;20.984;2023-07-22T08:06:43;3.80;;;1.70;;
54923;SDS011;40825;52.270;20.984;2023-07-22T08:09:10;5.20;;;1.60;;
54923;SDS011;40825;52.270;20.984;2023-07-22T08:11:36;4.00;;;1.70;;
54923;SDS011;40825;52.270;20.984;2023-07-22T08:14:03;2.60;;;1.20;;
54923;SDS011;40825;52.270;20.984;2023-07-22T08:16:30;4.40;;;1.70;;
54923;SDS011;40825;52.270;20.984;2023-07-22T08:18:56;4.20;;;2.20;;
54923;SDS011;40825;52.270;20.984;2023-07-22T08:21:21;4.50;;;1.30;;
54923;SDS011;40825;52.270;20.984;2023-07-22T08:23:47;6.80;;;3.50;;
54923;SDS011;40825;52.270;20.984;2023-07-22T08:26:13;3.90;;;1.30;;
54923;SDS011;40825;52.270;20.984;2023-07-22T08:28:38;3.20;;;1.30;;
54923;SDS011;40825;52.270;20.984;2023-07-22T08:31:04;2.50;;;1.20;;
54923;SDS011;40825;52.270;20.984;2023-07-22T08:33:30;4.50;;;1.30;;
54923;SDS011;40825;52.270;20.984;2023-07-22T08:35:56;4.10;;;1.70;;
54923;SDS011;40825;52.270;20.984;2023-07-22T08:38:21;3.10;;;1.30;;
54923;SDS011;40825;52.270;20.984;2023-07-22T08:40:50;4.20;;;1.50;;
54923;SDS011;40825;52.270;20.984;2023-07-22T08:43:17;2.20;;;1.10;;
54923;SDS011;40825;52.270;20.984;2023-07-22T08:45:45;3.10;;;1.20;;
54923;SDS011;40825;52.270;20.984;2023-07-22T08:48:13;3.10;;;1.10;;
54923;SDS011;40825;52.270;20.984;2023-07-22T08:50:53;3.30;;;1.00;;
54923;SDS011;40825;52.270;20.984;2023-07-22T08:53:21;4.40;;;1.40;;
54923;SDS011;40825;52.270;20.984;2023-07-22T08:55:50;3.80;;;1.30;;
54923;SDS011;40825;52.270;20.984;2023-07-22T08:58:16;2.60;;;1.10;;
54923;SDS011;40825;52.270;20.984;2023-07-22T09:00:42;2.80;;;1.30;;
54923;SDS011;40825;52.270;20.984;2023-07-22T09:03:08;3.80;;;1.50;;
54923;SDS011;40825;52.270;20.984;2023-07-22T09:05:35;5.30;;;1.30;;
54923;SDS011;40825;52.270;20.984;2023-07-22T09:08:02;3.20;;;1.10;;
54923;SDS011;40825;52.270;20.984;2023-07-22T09:10:29;2.60;;;1.30;;
54923;SDS011;40825;52.270;20.984;2023-07-22T09:12:55;3.60;;;1.50;;
54923;SDS011;40825;52.270;20.984;2023-07-22T09:15:21;3.20;;;1.50;;
54923;SDS011;40825;52.270;20.984;2023-07-22T09:17:48;3.60;;;1.90;;
54923;SDS011;40825;52.270;20.984;2023-07-22T09:20:14;3.70;;;2.10;;
54923;SDS011;40825;52.270;20.984;2023-07-22T09:22:43;4.20;;;1.90;;
54923;SDS011;40825;52.270;20.984;2023-07-22T09:25:13;3.60;;;2.00;;
54923;SDS011;40825;52.270;20.984;2023-07-22T09:27:42;3.00;;;1.60;;
54923;SDS011;40825;52.270;20.984;2023-07-22T09:30:19;4.40;;;1.90;;
54923;SDS011;40825;52.270;20.984;2023-07-22T09:33:00;5.60;;;2.60;;
54923;SDS011;40825;52.270;20.984;2023-07-22T09:35:28;3.20;;;1.60;;
54923;SDS011;40825;52.270;20.984;2023-07-22T09:37:56;4.20;;;1.40;;
54923;SDS011;40825;52.270;20.984;2023-07-22T09:40:23;4.90;;;2.00;;
54923;SDS011;40825;52.270;20.984;2023-07-22T09:43:00;3.60;;;1.60;;
54923;SDS011;40825;52.270;20.984;2023-07-22T09:45:30;4.80;;;1.80;;
54923;SDS011;40825;52.270;20.984;2023-07-22T09:47:57;3.60;;;1.10;;
54923;SDS011;40825;52.270;20.984;2023-07-22T09:50:23;4.30;;;1.90;;
54923;SDS011;40825;52.270;20.984;2023-07-22T09:52:55;3.20;;;1.40;;
54923;SDS011;40825;52.270;20.984;2023-07-22T09:55:22;3.40;;;1.20;;
54923;SDS011;40825;52.270;20.984;2023-07-22T09:57:50;4.00;;;1.30;;
54923;SDS011;40825;52.270;20.984;2023-07-22T10:00:20;2.90;;;1.30;;
54923;SDS011;40825;52.270;20.984;2023-07-22T10:02:47;2.10;;;1.00;;
54923;SDS011;40825;52.270;20.984;2023-07-22T10:05:24;3.80;;;1.20;;
54923;SDS011;40825;52.270;20.984;2023-07-22T10:07:54;3.10;;;1.00;;
54923;SDS011;40825;52.270;20.984;2023-07-22T10:10:25;3.10;;;1.30;;
54923;SDS011;40825;52.270;20.984;2023-07-22T10:15:22;2.50;;;1.20;;
54923;SDS011;40825;52.270;20.984;2023-07-22T10:17:49;3.90;;;1.10;;
54923;SDS011;40825;52.270;20.984;2023-07-22T10:20:16;1.60;;;1.00;;
54923;SDS011;40825;52.270;20.984;2023-07-22T10:22:44;1.80;;;0.80;;
54923;SDS011;40825;52.270;20.984;2023-07-22T10:25:12;3.70;;;1.00;;
54923;SDS011;40825;52.270;20.984;2023-07-22T10:27:40;3.30;;;0.90;;
54923;SDS011;40825;52.270;20.984;2023-07-22T10:30:07;1.30;;;0.80;;
54923;SDS011;40825;52.270;20.984;2023-07-22T10:32:38;2.20;;;0.80;;
54923;SDS011;40825;52.270;20.984;2023-07-22T10:35:09;3.50;;;1.20;;
54923;SDS011;40825;52.270;20.984;2023-07-22T10:37:39;3.00;;;0.80;;
54923;SDS011;40825;52.270;20.984;2023-07-22T10:40:17;1.60;;;0.70;;
54923;SDS011;40825;52.270;20.984;2023-07-22T10:43:02;2.20;;;0.90;;
54923;SDS011;40825;52.270;20.984;2023-07-22T10:45:29;1.50;;;0.90;;
54923;SDS011;40825;52.270;20.984;2023-07-22T10:48:15;4.00;;;1.80;;
54923;SDS011;40825;52.270;20.984;2023-07-22T10:50:44;3.00;;;1.00;;
54923;SDS011;40825;52.270;20.984;2023-07-22T11:06:34;3.50;;;1.00;;
54923;SDS011;40825;52.270;20.984;2023-07-22T11:09:00;2.50;;;0.80;;
54923;SDS011;40825;52.270;20.984;2023-07-22T11:11:38;4.40;;;1.00;;
54923;SDS011;40825;52.270;20.984;2023-07-22T11:14:15;2.30;;;0.90;;
54923;SDS011;40825;52.270;20.984;2023-07-22T11:16:44;2.40;;;1.20;;
54923;SDS011;40825;52.270;20.984;2023-07-22T11:19:12;4.70;;;1.60;;
54923;SDS011;40825;52.270;20.984;2023-07-22T11:21:38;2.60;;;0.70;;
54923;SDS011;40825;52.270;20.984;2023-07-22T11:24:04;2.40;;;1.30;;
54923;SDS011;40825;52.270;20.984;2023-07-22T11:26:30;4.10;;;1.20;;
54923;SDS011;40825;52.270;20.984;2023-07-22T11:28:56;2.00;;;0.80;;
54923;SDS011;40825;52.270;20.984;2023-07-22T11:31:22;2.20;;;0.90;;
54923;SDS011;40825;52.270;20.984;2023-07-22T11:33:55;4.10;;;1.00;;
54923;SDS011;40825;52.270;20.984;2023-07-22T11:36:20;2.80;;;1.00;;
54923;SDS011;40825;52.270;20.984;2023-07-22T11:38:46;2.50;;;1.10;;
54923;SDS011;40825;52.270;20.984;2023-07-22T11:41:11;2.50;;;0.90;;
54923;SDS011;40825;52.270;20.984;2023-07-22T11:43:37;4.00;;;1.30;;
54923;SDS011;40825;52.270;20.984;2023-07-22T11:46:04;3.10;;;1.00;;
54923;SDS011;40825;52.270;20.984;2023-07-22T11:48:31;3.80;;;1.40;;
54923;SDS011;40825;52.270;20.984;2023-07-22T11:51:00;2.00;;;0.70;;
54923;SDS011;40825;52.270;20.984;2023-07-22T11:53:27;3.70;;;1.10;;
54923;SDS011;40825;52.270;20.984;2023-07-22T11:55:55;5.00;;;1.40;;
54923;SDS011;40825;52.270;20.984;2023-07-22T11:58:24;3.70;;;1.70;;
54923;SDS011;40825;52.270;20.984;2023-07-22T12:01:07;2.80;;;0.90;;
54923;SDS011;40825;52.270;20.984;2023-07-22T12:03:35;3.80;;;1.30;;
54923;SDS011;40825;52.270;20.984;2023-07-22T12:06:01;3.10;;;1.20;;
54923;SDS011;40825;52.270;20.984;2023-07-22T12:08:28;2.20;;;1.00;;
54923;SDS011;40825;52.270;20.984;2023-07-22T12:10:57;2.80;;;1.00;;
54923;SDS011;40825;52.270;20.984;2023-07-22T12:13:24;2.70;;;1.20;;
54923;SDS011;40825;52.270;20.984;2023-07-22T12:15:59;2.60;;;1.20;;
54923;SDS011;40825;52.270;20.984;2023-07-22T12:18:26;1.80;;;1.00;;
54923;SDS011;40825;52.270;20.984;2023-07-22T12:20:51;3.40;;;1.10;;
54923;SDS011;40825;52.270;20.984;2023-07-22T12:23:17;2.80;;;0.90;;
54923;SDS011;40825;52.270;20.984;2023-07-22T12:25:43;3.70;;;1.40;;
54923;SDS011;40825;52.270;20.984;2023-07-22T12:28:09;1.90;;;1.10;;
54923;SDS011;40825;52.270;20.984;2023-07-22T12:30:36;2.10;;;1.00;;
54923;SDS011;40825;52.270;20.984;2023-07-22T12:33:02;3.70;;;1.10;;
54923;SDS011;40825;52.270;20.984;2023-07-22T12:35:27;2.20;;;1.30;;
54923;SDS011;40825;52.270;20.984;2023-07-22T12:37:53;3.80;;;1.10;;
54923;SDS011;40825;52.270;20.984;2023-07-22T12:40:21;3.30;;;1.10;;
54923;SDS011;40825;52.270;20.984;2023-07-22T12:42:47;2.50;;;1.10;;
54923;SDS011;40825;52.270;20.984;2023-07-22T12:45:12;2.30;;;0.90;;
54923;SDS011;40825;52.270;20.984;2023-07-22T12:47:38;6.20;;;2.10;;
54923;SDS011;40825;52.270;20.984;2023-07-22T12:50:04;3.40;;;1.10;;
54923;SDS011;40825;52.270;20.984;2023-07-22T12:52:33;4.00;;;1.80;;
54923;SDS011;40825;52.270;20.984;2023-07-22T12:54:58;3.70;;;1.30;;
54923;SDS011;40825;52.270;20.984;2023-07-22T12:57:24;3.20;;;1.20;;
54923;SDS011;40825;52.270;20.984;2023-07-22T12:59:49;3.00;;;1.20;;
54923;SDS011;40825;52.270;20.984;2023-07-22T13:02:16;2.50;;;1.00;;
54923;SDS011;40825;52.270;20.984;2023-07-22T13:04:42;2.40;;;1.20;;
54923;SDS011;40825;52.270;20.984;2023-07-22T13:07:09;3.10;;;1.00;;
54923;SDS011;40825;52.270;20.984;2023-07-22T13:09:34;6.30;;;1.40;;
54923;SDS011;40825;52.270;20.984;2023-07-22T13:12:00;6.20;;;1.30;;
54923;SDS011;40825;52.270;20.984;2023-07-22T13:14:25;3.00;;;0.90;;
54923;SDS011;40825;52.270;20.984;2023-07-22T13:16:50;2.20;;;1.00;;
54923;SDS011;40825;52.270;20.984;2023-07-22T13:19:16;5.20;;;0.90;;
54923;SDS011;40825;52.270;20.984;2023-07-22T13:21:44;3.00;;;1.00;;
54923;SDS011;40825;52.270;20.984;2023-07-22T13:24:10;3.00;;;0.90;;
54923;SDS011;40825;52.270;20.984;2023-07-22T13:26:35;2.00;;;0.80;;
54923;SDS011;40825;52.270;20.984;2023-07-22T13:29:01;2.40;;;1.20;;
54923;SDS011;40825;52.270;20.984;2023-07-22T13:31:26;4.30;;;1.20;;
54923;SDS011;40825;52.270;20.984;2023-07-22T13:33:52;3.00;;;1.10;;
54923;SDS011;40825;52.270;20.984;2023-07-22T13:36:17;3.10;;;1.20;;
54923;SDS011;40825;52.270;20.984;2023-07-22T13:38:43;3.50;;;1.20;;
54923;SDS011;40825;52.270;20.984;2023-07-22T13:41:08;4.10;;;1.40;;
54923;SDS011;40825;52.270;20.984;2023-07-22T13:43:33;3.10;;;1.20;;
54923;SDS011;40825;52.270;20.984;2023-07-22T13:45:59;2.80;;;1.00;;
54923;SDS011;40825;52.270;20.984;2023-07-22T13:48:24;4.70;;;1.30;;
54923;SDS011;40825;52.270;20.984;2023-07-22T13:50:50;5.00;;;1.20;;
54923;SDS011;40825;52.270;20.984;2023-07-22T13:53:15;3.80;;;0.90;;
54923;SDS011;40825;52.270;20.984;2023-07-22T13:55:41;2.60;;;1.10;;
54923;SDS011;40825;52.270;20.984;2023-07-22T13:58:07;2.80;;;1.00;;
54923;SDS011;40825;52.270;20.984;2023-07-22T14:00:33;2.50;;;1.20;;
54923;SDS011;40825;52.270;20.984;2023-07-22T14:02:59;2.20;;;0.90;;
54923;SDS011;40825;52.270;20.984;2023-07-22T14:05:24;2.70;;;1.20;;
54923;SDS011;40825;52.270;20.984;2023-07-22T14:07:50;5.40;;;1.70;;
54923;SDS011;40825;52.270;20.984;2023-07-22T14:10:15;4.80;;;1.40;;
54923;SDS011;40825;52.270;20.984;2023-07-22T14:12:41;3.70;;;1.40;;
54923;SDS011;40825;52.270;20.984;2023-07-22T14:15:06;3.40;;;1.70;;
54923;SDS011;40825;52.270;20.984;2023-07-22T14:17:36;2.00;;;1.00;;
54923;SDS011;40825;52.270;20.984;2023-07-22T14:20:03;2.70;;;1.30;;
54923;SDS011;40825;52.270;20.984;2023-07-22T14:22:30;4.10;;;1.20;;
54923;SDS011;40825;52.270;20.984;2023-07-22T14:24:56;3.90;;;1.10;;
54923;SDS011;40825;52.270;20.984;2023-07-22T14:27:21;2.70;;;1.40;;
54923;SDS011;40825;52.270;20.984;2023-07-22T14:29:46;3.30;;;1.60;;
54923;SDS011;40825;52.270;20.984;2023-07-22T14:32:12;3.10;;;1.30;;
54923;SDS011;40825;52.270;20.984;2023-07-22T14:34:37;2.80;;;1.10;;
54923;SDS011;40825;52.270;20.984;2023-07-22T14:37:04;3.10;;;1.10;;
54923;SDS011;40825;52.270;20.984;2023-07-22T14:39:30;2.50;;;1.10;;
54923;SDS011;40825;52.270;20.984;2023-07-22T14:41:55;3.00;;;1.30;;
54923;SDS011;40825;52.270;20.984;2023-07-22T14:44:21;2.70;;;1.30;;
54923;SDS011;40825;52.270;20.984;2023-07-22T14:46:46;3.10;;;1.20;;
54923;SDS011;40825;52.270;20.984;2023-07-22T14:49:12;4.70;;;1.60;;
54923;SDS011;40825;52.270;20.984;2023-07-22T14:51:37;4.30;;;1.60;;